sensor_id;sensor_type;location;lat;lon;timestamp;temperature;humidity
27266;DHT22;14766;51.380;13.762;2023-04-24T00:02:15;17.30;60.80
27266;DHT22;14766;51.380;13.762;2023-04-24T00:04:42;17.40;61.10
27266;DHT22;14766;51.380;13.762;2023-04-24T00:07:13;17.30;60.80
27266;DHT22;14766;51.380;13.762;2023-04-24T00:09:42;17.30;61.00
27266;DHT22;14766;51.380;13.762;2023-04-24T00:12:11;17.30;60.90
27266;DHT22;14766;51.380;13.762;2023-04-24T00:14:38;17.20;61.10
27266;DHT22;14766;51.380;13.762;2023-04-24T00:17:05;17.20;61.20
27266;DHT22;14766;51.380;13.762;2023-04-24T00:19:33;17.20;61.40
27266;DHT22;14766;51.380;13.762;2023-04-24T00:22:02;17.10;61.40
27266;DHT22;14766;51.380;13.762;2023-04-24T00:24:31;17.10;61.40
27266;DHT22;14766;51.380;13.762;2023-04-24T00:26:58;17.10;61.60
27266;DHT22;14766;51.380;13.762;2023-04-24T00:29:28;17.00;61.50
27266;DHT22;14766;51.380;13.762;2023-04-24T00:31:55;17.00;62.40
27266;DHT22;14766;51.380;13.762;2023-04-24T00:34:23;17.00;61.30
27266;DHT22;14766;51.380;13.762;2023-04-24T00:36:51;17.00;61.20
27266;DHT22;14766;51.380;13.762;2023-04-24T00:39:19;17.00;61.40
27266;DHT22;14766;51.380;13.762;2023-04-24T00:41:47;17.00;61.50
27266;DHT22;14766;51.380;13.762;2023-04-24T00:44:15;17.00;61.70
27266;DHT22;14766;51.380;13.762;2023-04-24T00:46:42;17.00;61.80
27266;DHT22;14766;51.380;13.762;2023-04-24T00:49:10;17.00;62.10
27266;DHT22;14766;51.380;13.762;2023-04-24T00:51:41;17.00;62.30
27266;DHT22;14766;51.380;13.762;2023-04-24T00:54:13;17.00;62.30
27266;DHT22;14766;51.380;13.762;2023-04-24T00:56:40;17.00;62.40
27266;DHT22;14766;51.380;13.762;2023-04-24T00:59:09;17.00;62.50
27266;DHT22;14766;51.380;13.762;2023-04-24T01:01:38;17.00;62.60
27266;DHT22;14766;51.380;13.762;2023-04-24T01:04:12;17.00;62.50
27266;DHT22;14766;51.380;13.762;2023-04-24T01:06:43;17.00;62.50
27266;DHT22;14766;51.380;13.762;2023-04-24T01:09:11;17.00;62.60
27266;DHT22;14766;51.380;13.762;2023-04-24T01:11:41;17.00;62.40
27266;DHT22;14766;51.380;13.762;2023-04-24T01:14:11;17.00;62.50
27266;DHT22;14766;51.380;13.762;2023-04-24T01:16:38;17.00;62.40
27266;DHT22;14766;51.380;13.762;2023-04-24T01:19:07;17.00;62.30
27266;DHT22;14766;51.380;13.762;2023-04-24T01:21:36;17.00;62.20
27266;DHT22;14766;51.380;13.762;2023-04-24T01:24:05;17.00;62.20
27266;DHT22;14766;51.380;13.762;2023-04-24T01:26:32;17.00;62.10
27266;DHT22;14766;51.380;13.762;2023-04-24T01:29:00;17.00;62.10
27266;DHT22;14766;51.380;13.762;2023-04-24T01:31:28;17.00;62.20
27266;DHT22;14766;51.380;13.762;2023-04-24T01:33:56;17.00;62.20
27266;DHT22;14766;51.380;13.762;2023-04-24T01:36:24;17.00;62.40
27266;DHT22;14766;51.380;13.762;2023-04-24T01:38:52;17.00;62.20
27266;DHT22;14766;51.380;13.762;2023-04-24T01:41:19;17.00;62.30
27266;DHT22;14766;51.380;13.762;2023-04-24T01:43:48;17.00;62.30
27266;DHT22;14766;51.380;13.762;2023-04-24T01:46:15;17.00;62.40
27266;DHT22;14766;51.380;13.762;2023-04-24T01:48:45;16.90;62.10
27266;DHT22;14766;51.380;13.762;2023-04-24T01:51:12;17.00;62.10
27266;DHT22;14766;51.380;13.762;2023-04-24T01:53:39;17.00;62.20
27266;DHT22;14766;51.380;13.762;2023-04-24T01:56:08;17.00;62.10
27266;DHT22;14766;51.380;13.762;2023-04-24T01:58:36;17.00;62.10
27266;DHT22;14766;51.380;13.762;2023-04-24T02:01:03;17.00;62.00
27266;DHT22;14766;51.380;13.762;2023-04-24T02:03:30;17.00;62.00
27266;DHT22;14766;51.380;13.762;2023-04-24T02:05:58;17.00;62.00
27266;DHT22;14766;51.380;13.762;2023-04-24T02:08:25;17.00;61.90
27266;DHT22;14766;51.380;13.762;2023-04-24T02:10:52;17.00;61.90
27266;DHT22;14766;51.380;13.762;2023-04-24T02:13:19;17.00;61.90
27266;DHT22;14766;51.380;13.762;2023-04-24T02:15:46;17.00;62.00
27266;DHT22;14766;51.380;13.762;2023-04-24T02:18:15;17.00;62.00
27266;DHT22;14766;51.380;13.762;2023-04-24T02:20:43;17.00;62.20
27266;DHT22;14766;51.380;13.762;2023-04-24T02:23:10;16.90;62.10
27266;DHT22;14766;51.380;13.762;2023-04-24T02:25:38;16.90;61.90
27266;DHT22;14766;51.380;13.762;2023-04-24T02:28:06;16.90;62.00
27266;DHT22;14766;51.380;13.762;2023-04-24T02:30:33;16.90;62.00
27266;DHT22;14766;51.380;13.762;2023-04-24T02:33:01;16.90;62.00
27266;DHT22;14766;51.380;13.762;2023-04-24T02:35:29;17.00;62.10
27266;DHT22;14766;51.380;13.762;2023-04-24T02:37:56;17.00;62.20
27266;DHT22;14766;51.380;13.762;2023-04-24T02:40:26;17.00;62.10
27266;DHT22;14766;51.380;13.762;2023-04-24T02:42:53;17.00;62.00
27266;DHT22;14766;51.380;13.762;2023-04-24T02:45:21;17.00;61.90
27266;DHT22;14766;51.380;13.762;2023-04-24T02:47:48;17.00;62.00
27266;DHT22;14766;51.380;13.762;2023-04-24T02:50:15;17.00;62.00
27266;DHT22;14766;51.380;13.762;2023-04-24T02:52:42;17.00;63.10
27266;DHT22;14766;51.380;13.762;2023-04-24T02:55:09;17.00;62.00
27266;DHT22;14766;51.380;13.762;2023-04-24T02:57:36;17.00;62.00
27266;DHT22;14766;51.380;13.762;2023-04-24T03:00:06;17.00;61.90
27266;DHT22;14766;51.380;13.762;2023-04-24T03:02:34;17.00;61.80
27266;DHT22;14766;51.380;13.762;2023-04-24T03:05:01;17.00;61.80
27266;DHT22;14766;51.380;13.762;2023-04-24T03:07:29;17.00;61.90
27266;DHT22;14766;51.380;13.762;2023-04-24T03:09:58;17.00;61.80
27266;DHT22;14766;51.380;13.762;2023-04-24T03:12:26;17.00;62.00
27266;DHT22;14766;51.380;13.762;2023-04-24T03:14:53;17.00;62.00
27266;DHT22;14766;51.380;13.762;2023-04-24T03:17:20;17.00;61.90
27266;DHT22;14766;51.380;13.762;2023-04-24T03:19:48;17.00;61.80
27266;DHT22;14766;51.380;13.762;2023-04-24T03:22:14;17.00;61.70
27266;DHT22;14766;51.380;13.762;2023-04-24T03:24:43;17.00;61.60
27266;DHT22;14766;51.380;13.762;2023-04-24T03:27:11;17.00;61.70
27266;DHT22;14766;51.380;13.762;2023-04-24T03:29:49;17.00;61.60
27266;DHT22;14766;51.380;13.762;2023-04-24T03:32:22;17.00;61.50
27266;DHT22;14766;51.380;13.762;2023-04-24T03:34:51;17.00;61.40
27266;DHT22;14766;51.380;13.762;2023-04-24T03:37:19;16.90;61.50
27266;DHT22;14766;51.380;13.762;2023-04-24T03:40:02;16.90;61.50
27266;DHT22;14766;51.380;13.762;2023-04-24T03:42:30;16.80;61.40
27266;DHT22;14766;51.380;13.762;2023-04-24T03:45:00;16.80;61.50
27266;DHT22;14766;51.380;13.762;2023-04-24T03:47:33;16.80;61.50
27266;DHT22;14766;51.380;13.762;2023-04-24T03:50:03;16.80;61.50
27266;DHT22;14766;51.380;13.762;2023-04-24T03:52:31;16.80;61.60
27266;DHT22;14766;51.380;13.762;2023-04-24T03:54:58;16.80;61.70
27266;DHT22;14766;51.380;13.762;2023-04-24T03:57:27;16.70;61.70
27266;DHT22;14766;51.380;13.762;2023-04-24T04:00:06;16.70;61.70
27266;DHT22;14766;51.380;13.762;2023-04-24T04:02:40;16.70;61.70
27266;DHT22;14766;51.380;13.762;2023-04-24T04:05:08;16.70;61.80
27266;DHT22;14766;51.380;13.762;2023-04-24T04:07:39;16.70;61.90
27266;DHT22;14766;51.380;13.762;2023-04-24T04:10:07;16.70;62.00
27266;DHT22;14766;51.380;13.762;2023-04-24T04:12:36;16.60;62.00
27266;DHT22;14766;51.380;13.762;2023-04-24T04:15:04;16.60;62.10
27266;DHT22;14766;51.380;13.762;2023-04-24T04:17:33;16.60;62.30
27266;DHT22;14766;51.380;13.762;2023-04-24T04:20:05;16.60;62.30
27266;DHT22;14766;51.380;13.762;2023-04-24T04:22:41;16.60;62.40
27266;DHT22;14766;51.380;13.762;2023-04-24T04:25:15;16.60;62.30
27266;DHT22;14766;51.380;13.762;2023-04-24T04:27:46;16.50;62.50
27266;DHT22;14766;51.380;13.762;2023-04-24T04:30:15;16.50;62.60
27266;DHT22;14766;51.380;13.762;2023-04-24T04:32:51;16.50;62.60
27266;DHT22;14766;51.380;13.762;2023-04-24T04:35:19;16.50;62.50
27266;DHT22;14766;51.380;13.762;2023-04-24T04:37:50;16.50;62.60
27266;DHT22;14766;51.380;13.762;2023-04-24T04:40:22;16.50;62.50
27266;DHT22;14766;51.380;13.762;2023-04-24T04:42:57;16.50;62.50
27266;DHT22;14766;51.380;13.762;2023-04-24T04:45:30;16.60;62.60
27266;DHT22;14766;51.380;13.762;2023-04-24T04:48:29;16.60;62.60
27266;DHT22;14766;51.380;13.762;2023-04-24T04:51:00;16.60;62.50
27266;DHT22;14766;51.380;13.762;2023-04-24T04:53:28;16.60;62.50
27266;DHT22;14766;51.380;13.762;2023-04-24T04:55:56;16.60;62.50
27266;DHT22;14766;51.380;13.762;2023-04-24T04:58:29;16.60;62.50
27266;DHT22;14766;51.380;13.762;2023-04-24T05:00:58;16.50;62.40
27266;DHT22;14766;51.380;13.762;2023-04-24T05:03:40;16.50;62.40
27266;DHT22;14766;51.380;13.762;2023-04-24T05:06:09;16.50;62.40
27266;DHT22;14766;51.380;13.762;2023-04-24T05:08:38;16.50;62.40
27266;DHT22;14766;51.380;13.762;2023-04-24T05:11:09;16.50;63.20
27266;DHT22;14766;51.380;13.762;2023-04-24T05:13:38;16.50;62.40
27266;DHT22;14766;51.380;13.762;2023-04-24T05:16:18;16.50;62.30
27266;DHT22;14766;51.380;13.762;2023-04-24T05:18:49;16.50;62.20
27266;DHT22;14766;51.380;13.762;2023-04-24T05:21:20;16.50;62.20
27266;DHT22;14766;51.380;13.762;2023-04-24T05:23:50;16.50;62.20
27266;DHT22;14766;51.380;13.762;2023-04-24T05:26:46;16.60;62.00
27266;DHT22;14766;51.380;13.762;2023-04-24T05:29:18;16.60;62.00
27266;DHT22;14766;51.380;13.762;2023-04-24T05:31:46;16.60;61.90
27266;DHT22;14766;51.380;13.762;2023-04-24T05:34:14;16.60;61.80
27266;DHT22;14766;51.380;13.762;2023-04-24T05:36:44;16.60;61.60
27266;DHT22;14766;51.380;13.762;2023-04-24T05:39:11;16.60;61.40
27266;DHT22;14766;51.380;13.762;2023-04-24T05:41:38;16.70;61.50
27266;DHT22;14766;51.380;13.762;2023-04-24T05:44:05;16.70;61.40
27266;DHT22;14766;51.380;13.762;2023-04-24T05:46:36;16.70;61.20
27266;DHT22;14766;51.380;13.762;2023-04-24T05:49:04;16.80;61.00
27266;DHT22;14766;51.380;13.762;2023-04-24T05:51:32;16.80;61.00
27266;DHT22;14766;51.380;13.762;2023-04-24T05:53:59;16.80;61.20
27266;DHT22;14766;51.380;13.762;2023-04-24T05:56:28;16.80;61.30
27266;DHT22;14766;51.380;13.762;2023-04-24T05:58:55;17.00;61.20
27266;DHT22;14766;51.380;13.762;2023-04-24T06:01:23;17.00;60.80
27266;DHT22;14766;51.380;13.762;2023-04-24T06:04:03;17.10;60.60
27266;DHT22;14766;51.380;13.762;2023-04-24T06:06:30;17.10;60.60
27266;DHT22;14766;51.380;13.762;2023-04-24T06:08:59;17.20;60.70
27266;DHT22;14766;51.380;13.762;2023-04-24T06:11:27;17.30;60.50
27266;DHT22;14766;51.380;13.762;2023-04-24T06:13:55;17.30;60.30
27266;DHT22;14766;51.380;13.762;2023-04-24T06:16:57;17.30;60.10
27266;DHT22;14766;51.380;13.762;2023-04-24T06:19:34;17.40;60.20
27266;DHT22;14766;51.380;13.762;2023-04-24T06:22:02;17.50;59.80
27266;DHT22;14766;51.380;13.762;2023-04-24T06:24:29;17.50;59.90
27266;DHT22;14766;51.380;13.762;2023-04-24T06:26:57;17.50;59.80
27266;DHT22;14766;51.380;13.762;2023-04-24T06:29:29;17.60;59.60
27266;DHT22;14766;51.380;13.762;2023-04-24T06:31:56;17.60;59.40
27266;DHT22;14766;51.380;13.762;2023-04-24T06:34:24;17.70;59.40
27266;DHT22;14766;51.380;13.762;2023-04-24T06:36:51;17.70;59.20
27266;DHT22;14766;51.380;13.762;2023-04-24T06:39:18;17.80;59.10
27266;DHT22;14766;51.380;13.762;2023-04-24T06:41:47;17.80;59.10
27266;DHT22;14766;51.380;13.762;2023-04-24T06:44:20;17.90;58.80
27266;DHT22;14766;51.380;13.762;2023-04-24T06:46:47;18.00;58.60
27266;DHT22;14766;51.380;13.762;2023-04-24T06:49:16;18.10;58.70
27266;DHT22;14766;51.380;13.762;2023-04-24T06:51:45;18.20;58.60
27266;DHT22;14766;51.380;13.762;2023-04-24T06:54:12;18.40;58.50
27266;DHT22;14766;51.380;13.762;2023-04-24T06:56:39;18.60;58.30
27266;DHT22;14766;51.380;13.762;2023-04-24T06:59:06;18.80;58.00
27266;DHT22;14766;51.380;13.762;2023-04-24T07:01:34;19.10;57.70
27266;DHT22;14766;51.380;13.762;2023-04-24T07:04:01;19.30;56.60
27266;DHT22;14766;51.380;13.762;2023-04-24T07:06:28;19.60;55.10
27266;DHT22;14766;51.380;13.762;2023-04-24T07:08:59;19.80;54.30
27266;DHT22;14766;51.380;13.762;2023-04-24T07:11:27;20.00;54.00
27266;DHT22;14766;51.380;13.762;2023-04-24T07:13:56;20.10;53.90
27266;DHT22;14766;51.380;13.762;2023-04-24T07:16:23;20.30;54.00
27266;DHT22;14766;51.380;13.762;2023-04-24T07:18:50;20.50;53.80
27266;DHT22;14766;51.380;13.762;2023-04-24T07:21:18;20.70;52.80
27266;DHT22;14766;51.380;13.762;2023-04-24T07:23:45;20.80;52.90
27266;DHT22;14766;51.380;13.762;2023-04-24T07:26:12;20.90;52.30
27266;DHT22;14766;51.380;13.762;2023-04-24T07:28:42;21.10;52.10
27266;DHT22;14766;51.380;13.762;2023-04-24T07:31:11;21.30;52.30
27266;DHT22;14766;51.380;13.762;2023-04-24T07:33:39;21.50;52.00
27266;DHT22;14766;51.380;13.762;2023-04-24T07:36:06;21.70;50.40
27266;DHT22;14766;51.380;13.762;2023-04-24T07:38:33;22.00;48.90
27266;DHT22;14766;51.380;13.762;2023-04-24T07:41:01;22.30;49.50
27266;DHT22;14766;51.380;13.762;2023-04-24T07:43:28;22.50;48.70
27266;DHT22;14766;51.380;13.762;2023-04-24T07:45:55;22.70;47.40
27266;DHT22;14766;51.380;13.762;2023-04-24T07:48:22;22.80;47.30
27266;DHT22;14766;51.380;13.762;2023-04-24T07:50:52;22.90;45.30
27266;DHT22;14766;51.380;13.762;2023-04-24T07:53:19;23.00;45.80
27266;DHT22;14766;51.380;13.762;2023-04-24T07:55:48;23.00;45.00
27266;DHT22;14766;51.380;13.762;2023-04-24T07:58:18;22.90;43.10
27266;DHT22;14766;51.380;13.762;2023-04-24T08:00:46;22.80;44.20
27266;DHT22;14766;51.380;13.762;2023-04-24T08:03:13;22.60;43.90
27266;DHT22;14766;51.380;13.762;2023-04-24T08:05:41;22.40;44.70
27266;DHT22;14766;51.380;13.762;2023-04-24T08:08:08;22.20;45.40
27266;DHT22;14766;51.380;13.762;2023-04-24T08:10:36;22.10;45.60
27266;DHT22;14766;51.380;13.762;2023-04-24T08:13:03;21.90;45.50
27266;DHT22;14766;51.380;13.762;2023-04-24T08:15:30;21.80;45.50
27266;DHT22;14766;51.380;13.762;2023-04-24T08:17:57;21.70;46.00
27266;DHT22;14766;51.380;13.762;2023-04-24T08:20:25;21.60;47.00
27266;DHT22;14766;51.380;13.762;2023-04-24T08:22:52;21.60;47.30
27266;DHT22;14766;51.380;13.762;2023-04-24T08:25:19;21.60;46.80
27266;DHT22;14766;51.380;13.762;2023-04-24T08:27:46;21.50;46.40
27266;DHT22;14766;51.380;13.762;2023-04-24T08:30:14;21.50;46.10
27266;DHT22;14766;51.380;13.762;2023-04-24T08:32:41;21.40;46.40
27266;DHT22;14766;51.380;13.762;2023-04-24T08:35:09;21.30;46.80
27266;DHT22;14766;51.380;13.762;2023-04-24T08:37:37;21.30;46.70
27266;DHT22;14766;51.380;13.762;2023-04-24T08:40:11;21.30;46.90
27266;DHT22;14766;51.380;13.762;2023-04-24T08:42:44;21.20;46.10
27266;DHT22;14766;51.380;13.762;2023-04-24T08:45:12;21.10;46.20
27266;DHT22;14766;51.380;13.762;2023-04-24T08:47:40;21.00;46.80
27266;DHT22;14766;51.380;13.762;2023-04-24T08:50:09;20.80;46.60
27266;DHT22;14766;51.380;13.762;2023-04-24T08:52:36;20.70;46.60
27266;DHT22;14766;51.380;13.762;2023-04-24T08:55:04;20.60;47.50
27266;DHT22;14766;51.380;13.762;2023-04-24T08:57:32;20.40;47.90
27266;DHT22;14766;51.380;13.762;2023-04-24T09:00:00;20.40;48.30
27266;DHT22;14766;51.380;13.762;2023-04-24T09:02:28;20.30;48.00
27266;DHT22;14766;51.380;13.762;2023-04-24T09:04:56;20.20;47.90
27266;DHT22;14766;51.380;13.762;2023-04-24T09:07:25;20.10;48.20
27266;DHT22;14766;51.380;13.762;2023-04-24T09:09:54;20.10;48.50
27266;DHT22;14766;51.380;13.762;2023-04-24T09:12:23;20.00;48.10
27266;DHT22;14766;51.380;13.762;2023-04-24T09:14:52;19.90;48.20
27266;DHT22;14766;51.380;13.762;2023-04-24T09:17:19;19.80;48.50
27266;DHT22;14766;51.380;13.762;2023-04-24T09:19:46;19.80;48.90
27266;DHT22;14766;51.380;13.762;2023-04-24T09:22:14;19.70;48.90
27266;DHT22;14766;51.380;13.762;2023-04-24T09:24:45;19.70;48.90
27266;DHT22;14766;51.380;13.762;2023-04-24T09:27:12;19.80;49.10
27266;DHT22;14766;51.380;13.762;2023-04-24T09:29:53;19.80;49.30
27266;DHT22;14766;51.380;13.762;2023-04-24T09:32:22;19.90;49.40
27266;DHT22;14766;51.380;13.762;2023-04-24T09:35:10;19.90;48.90
27266;DHT22;14766;51.380;13.762;2023-04-24T09:37:43;19.90;48.20
27266;DHT22;14766;51.380;13.762;2023-04-24T09:42:51;20.00;47.60
27266;DHT22;14766;51.380;13.762;2023-04-24T09:45:21;20.00;47.50
27266;DHT22;14766;51.380;13.762;2023-04-24T09:47:52;20.00;47.80
27266;DHT22;14766;51.380;13.762;2023-04-24T09:50:23;20.00;48.10
27266;DHT22;14766;51.380;13.762;2023-04-24T09:53:05;20.00;48.70
27266;DHT22;14766;51.380;13.762;2023-04-24T09:55:39;19.90;48.30
27266;DHT22;14766;51.380;13.762;2023-04-24T09:58:08;19.90;48.30
27266;DHT22;14766;51.380;13.762;2023-04-24T10:00:35;19.90;48.50
27266;DHT22;14766;51.380;13.762;2023-04-24T10:03:04;19.90;48.30
27266;DHT22;14766;51.380;13.762;2023-04-24T10:05:33;20.00;48.00
27266;DHT22;14766;51.380;13.762;2023-04-24T10:08:02;20.00;47.50
27266;DHT22;14766;51.380;13.762;2023-04-24T10:10:31;20.00;47.50
27266;DHT22;14766;51.380;13.762;2023-04-24T10:13:00;20.10;47.80
27266;DHT22;14766;51.380;13.762;2023-04-24T10:15:29;20.10;47.10
27266;DHT22;14766;51.380;13.762;2023-04-24T10:17:58;20.20;47.10
27266;DHT22;14766;51.380;13.762;2023-04-24T10:20:28;20.20;47.40
27266;DHT22;14766;51.380;13.762;2023-04-24T10:22:57;20.30;47.40
27266;DHT22;14766;51.380;13.762;2023-04-24T10:25:26;20.40;46.70
27266;DHT22;14766;51.380;13.762;2023-04-24T10:27:55;20.50;47.10
27266;DHT22;14766;51.380;13.762;2023-04-24T10:30:32;20.60;46.80
27266;DHT22;14766;51.380;13.762;2023-04-24T10:33:06;20.70;46.60
27266;DHT22;14766;51.380;13.762;2023-04-24T10:35:38;20.80;45.90
27266;DHT22;14766;51.380;13.762;2023-04-24T10:38:09;20.80;45.40
27266;DHT22;14766;51.380;13.762;2023-04-24T10:40:38;20.80;45.10
27266;DHT22;14766;51.380;13.762;2023-04-24T10:43:07;20.80;44.90
27266;DHT22;14766;51.380;13.762;2023-04-24T10:45:38;20.90;45.70
27266;DHT22;14766;51.380;13.762;2023-04-24T10:48:09;20.90;45.90
27266;DHT22;14766;51.380;13.762;2023-04-24T10:53:24;21.00;44.00
27266;DHT22;14766;51.380;13.762;2023-04-24T10:56:04;21.00;44.70
27266;DHT22;14766;51.380;13.762;2023-04-24T10:58:51;21.00;45.90
27266;DHT22;14766;51.380;13.762;2023-04-24T11:01:24;21.00;43.30
27266;DHT22;14766;51.380;13.762;2023-04-24T11:04:00;21.00;43.10
27266;DHT22;14766;51.380;13.762;2023-04-24T11:06:29;21.10;44.30
27266;DHT22;14766;51.380;13.762;2023-04-24T11:09:09;21.20;43.90
27266;DHT22;14766;51.380;13.762;2023-04-24T11:11:37;21.30;44.40
27266;DHT22;14766;51.380;13.762;2023-04-24T11:14:07;21.40;44.20
27266;DHT22;14766;51.380;13.762;2023-04-24T11:16:54;21.40;44.10
27266;DHT22;14766;51.380;13.762;2023-04-24T11:19:25;21.50;43.80
27266;DHT22;14766;51.380;13.762;2023-04-24T11:22:03;21.50;43.10
27266;DHT22;14766;51.380;13.762;2023-04-24T11:24:49;21.50;43.10
27266;DHT22;14766;51.380;13.762;2023-04-24T11:27:23;21.50;43.20
27266;DHT22;14766;51.380;13.762;2023-04-24T11:35:04;21.40;43.70
27266;DHT22;14766;51.380;13.762;2023-04-24T11:40:02;21.40;44.90
27266;DHT22;14766;51.380;13.762;2023-04-24T11:42:42;21.40;44.60
27266;DHT22;14766;51.380;13.762;2023-04-24T11:45:14;21.40;44.50
27266;DHT22;14766;51.380;13.762;2023-04-24T11:47:43;21.30;44.50
27266;DHT22;14766;51.380;13.762;2023-04-24T11:50:14;21.20;44.00
27266;DHT22;14766;51.380;13.762;2023-04-24T11:52:51;21.10;44.50
27266;DHT22;14766;51.380;13.762;2023-04-24T11:57:47;21.00;45.60
27266;DHT22;14766;51.380;13.762;2023-04-24T12:00:19;21.00;44.90
27266;DHT22;14766;51.380;13.762;2023-04-24T12:02:48;20.90;44.70
27266;DHT22;14766;51.380;13.762;2023-04-24T12:05:23;20.80;44.70
27266;DHT22;14766;51.380;13.762;2023-04-24T12:07:53;20.70;45.10
27266;DHT22;14766;51.380;13.762;2023-04-24T12:10:24;20.70;49.30
27266;DHT22;14766;51.380;13.762;2023-04-24T12:12:52;20.50;52.20
27266;DHT22;14766;51.380;13.762;2023-04-24T12:15:20;20.40;53.30
27266;DHT22;14766;51.380;13.762;2023-04-24T12:17:49;20.30;52.90
27266;DHT22;14766;51.380;13.762;2023-04-24T12:20:17;20.20;53.20
27266;DHT22;14766;51.380;13.762;2023-04-24T12:22:58;20.10;54.60
27266;DHT22;14766;51.380;13.762;2023-04-24T12:25:29;20.10;54.70
27266;DHT22;14766;51.380;13.762;2023-04-24T12:30:48;20.10;55.40
27266;DHT22;14766;51.380;13.762;2023-04-24T12:33:19;20.10;55.20
27266;DHT22;14766;51.380;13.762;2023-04-24T12:35:48;20.10;54.00
27266;DHT22;14766;51.380;13.762;2023-04-24T12:38:16;20.20;55.50
27266;DHT22;14766;51.380;13.762;2023-04-24T12:40:45;20.30;56.40
27266;DHT22;14766;51.380;13.762;2023-04-24T12:43:19;20.30;53.20
27266;DHT22;14766;51.380;13.762;2023-04-24T12:45:49;20.30;51.90
27266;DHT22;14766;51.380;13.762;2023-04-24T12:48:16;20.30;48.70
27266;DHT22;14766;51.380;13.762;2023-04-24T12:50:44;20.30;50.50
27266;DHT22;14766;51.380;13.762;2023-04-24T12:53:14;20.30;49.30
27266;DHT22;14766;51.380;13.762;2023-04-24T12:55:43;20.30;47.40
27266;DHT22;14766;51.380;13.762;2023-04-24T12:58:11;20.40;48.30
27266;DHT22;14766;51.380;13.762;2023-04-24T13:00:39;20.40;46.20
27266;DHT22;14766;51.380;13.762;2023-04-24T13:03:07;20.40;45.80
27266;DHT22;14766;51.380;13.762;2023-04-24T13:05:34;20.40;44.60
27266;DHT22;14766;51.380;13.762;2023-04-24T13:08:01;20.40;43.50
27266;DHT22;14766;51.380;13.762;2023-04-24T13:10:28;20.40;42.50
27266;DHT22;14766;51.380;13.762;2023-04-24T13:12:57;20.40;41.20
27266;DHT22;14766;51.380;13.762;2023-04-24T13:15:24;20.30;41.20
27266;DHT22;14766;51.380;13.762;2023-04-24T13:17:51;20.40;43.40
27266;DHT22;14766;51.380;13.762;2023-04-24T13:20:18;20.40;42.80
27266;DHT22;14766;51.380;13.762;2023-04-24T13:22:45;20.40;42.40
27266;DHT22;14766;51.380;13.762;2023-04-24T13:25:13;20.50;41.50
27266;DHT22;14766;51.380;13.762;2023-04-24T13:27:44;20.50;40.20
27266;DHT22;14766;51.380;13.762;2023-04-24T13:30:14;20.50;38.60
27266;DHT22;14766;51.380;13.762;2023-04-24T13:32:41;20.50;39.20
27266;DHT22;14766;51.380;13.762;2023-04-24T13:35:08;20.50;38.70
27266;DHT22;14766;51.380;13.762;2023-04-24T13:37:35;20.50;37.90
27266;DHT22;14766;51.380;13.762;2023-04-24T13:40:02;20.50;38.80
27266;DHT22;14766;51.380;13.762;2023-04-24T13:42:33;20.50;37.70
27266;DHT22;14766;51.380;13.762;2023-04-24T13:45:00;20.50;38.20
27266;DHT22;14766;51.380;13.762;2023-04-24T13:47:31;20.60;37.50
27266;DHT22;14766;51.380;13.762;2023-04-24T13:49:59;20.50;37.90
27266;DHT22;14766;51.380;13.762;2023-04-24T13:52:26;20.50;37.70
27266;DHT22;14766;51.380;13.762;2023-04-24T13:54:54;20.50;38.10
27266;DHT22;14766;51.380;13.762;2023-04-24T13:57:22;20.40;38.20
27266;DHT22;14766;51.380;13.762;2023-04-24T13:59:49;20.40;38.10
27266;DHT22;14766;51.380;13.762;2023-04-24T14:02:16;20.40;39.30
27266;DHT22;14766;51.380;13.762;2023-04-24T14:04:43;20.30;39.30
27266;DHT22;14766;51.380;13.762;2023-04-24T14:07:11;20.30;38.80
27266;DHT22;14766;51.380;13.762;2023-04-24T14:09:38;20.20;39.10
27266;DHT22;14766;51.380;13.762;2023-04-24T14:12:06;20.20;38.30
27266;DHT22;14766;51.380;13.762;2023-04-24T14:14:33;20.10;38.10
27266;DHT22;14766;51.380;13.762;2023-04-24T14:17:01;20.10;37.80
27266;DHT22;14766;51.380;13.762;2023-04-24T14:19:28;20.10;37.10
27266;DHT22;14766;51.380;13.762;2023-04-24T14:21:55;20.10;37.20
27266;DHT22;14766;51.380;13.762;2023-04-24T14:24:25;20.10;37.00
27266;DHT22;14766;51.380;13.762;2023-04-24T14:26:52;20.10;37.10
27266;DHT22;14766;51.380;13.762;2023-04-24T14:29:19;20.10;37.50
27266;DHT22;14766;51.380;13.762;2023-04-24T14:31:46;20.10;38.30
27266;DHT22;14766;51.380;13.762;2023-04-24T14:34:14;20.10;38.10
27266;DHT22;14766;51.380;13.762;2023-04-24T14:36:43;20.00;38.80
27266;DHT22;14766;51.380;13.762;2023-04-24T14:39:10;20.10;38.90
27266;DHT22;14766;51.380;13.762;2023-04-24T14:41:38;20.10;37.40
27266;DHT22;14766;51.380;13.762;2023-04-24T14:44:06;20.00;37.80
27266;DHT22;14766;51.380;13.762;2023-04-24T14:46:33;20.00;37.60
27266;DHT22;14766;51.380;13.762;2023-04-24T14:49:01;20.00;38.20
27266;DHT22;14766;51.380;13.762;2023-04-24T14:51:30;20.00;38.20
27266;DHT22;14766;51.380;13.762;2023-04-24T14:53:58;20.00;38.20
27266;DHT22;14766;51.380;13.762;2023-04-24T14:56:25;19.90;37.50
27266;DHT22;14766;51.380;13.762;2023-04-24T14:58:52;19.90;38.20
27266;DHT22;14766;51.380;13.762;2023-04-24T15:01:19;19.90;37.80
27266;DHT22;14766;51.380;13.762;2023-04-24T15:03:47;19.90;38.20
27266;DHT22;14766;51.380;13.762;2023-04-24T15:06:15;19.90;38.70
27266;DHT22;14766;51.380;13.762;2023-04-24T15:08:43;19.90;38.10
27266;DHT22;14766;51.380;13.762;2023-04-24T15:11:14;19.90;37.30
27266;DHT22;14766;51.380;13.762;2023-04-24T15:13:41;19.90;35.40
27266;DHT22;14766;51.380;13.762;2023-04-24T15:16:08;19.90;36.00
27266;DHT22;14766;51.380;13.762;2023-04-24T15:18:35;19.80;36.40
27266;DHT22;14766;51.380;13.762;2023-04-24T15:21:02;19.80;37.40
27266;DHT22;14766;51.380;13.762;2023-04-24T15:23:29;19.70;37.30
27266;DHT22;14766;51.380;13.762;2023-04-24T15:25:56;19.80;37.10
27266;DHT22;14766;51.380;13.762;2023-04-24T15:28:25;19.70;37.10
27266;DHT22;14766;51.380;13.762;2023-04-24T15:30:53;19.60;37.60
27266;DHT22;14766;51.380;13.762;2023-04-24T15:33:20;19.60;38.00
27266;DHT22;14766;51.380;13.762;2023-04-24T15:35:48;19.60;38.30
27266;DHT22;14766;51.380;13.762;2023-04-24T15:38:15;19.60;38.40
27266;DHT22;14766;51.380;13.762;2023-04-24T15:40:42;19.60;38.40
27266;DHT22;14766;51.380;13.762;2023-04-24T15:43:11;19.60;38.70
27266;DHT22;14766;51.380;13.762;2023-04-24T15:45:38;19.60;38.20
27266;DHT22;14766;51.380;13.762;2023-04-24T15:48:05;19.60;38.60